Time;durP1;ratioP1;P1;durP2;ratioP2;P2;SDS_P1;SDS_P2;PMS_P1;PMS_P2;Temp;Humidity;BMP_temperature;BMP_pressure;BME280_temperature;BME280_humidity;BME280_pressure;Samples;Min_cycle;Max_cycle;Signal;HPM_P1;HPM_P2
2023/03/22 00:03:03;;;;;;;12.27;6.95;;;11.20;80.50;;;;;;9182994;19;20464;-64
2023/03/22 00:06:08;;;;;;;14.27;6.22;;;11.10;80.50;;;;;;9183886;19;20019;-64
2023/03/22 00:09:15;;;;;;;17.17;6.55;;;11.20;80.50;;;;;;9178792;19;20019;-63
2023/03/22 00:12:18;;;;;;;12.98;6.75;;;11.10;80.40;;;;;;9179708;19;20480;-68
2023/03/22 00:15:28;;;;;;;16.10;6.47;;;11.10;80.50;;;;;;9177131;19;20002;-62
2023/03/22 00:18:32;;;;;;;17.75;6.40;;;11.10;80.40;;;;;;9171366;19;20054;-62
2023/03/22 00:21:38;;;;;;;15.25;5.50;;;11.20;80.50;;;;;;9171115;19;20018;-62
2023/03/22 00:24:42;;;;;;;18.40;6.40;;;11.10;80.40;;;;;;9176486;19;20015;-62
2023/03/22 00:27:48;;;;;;;21.17;5.82;;;11.10;80.40;;;;;;9175823;19;20253;-62
2023/03/22 00:30:55;;;;;;;;;;;11.20;80.50;;;;;;9180943;19;20021;-62
2023/03/22 00:34:01;;;;;;;7.55;4.82;;;11.10;80.40;;;;;;9180857;19;19914;-63
2023/03/22 00:37:06;;;;;;;11.55;5.60;;;11.10;80.30;;;;;;9180755;19;20014;-63
2023/03/22 00:40:14;;;;;;;11.13;4.75;;;11.10;80.30;;;;;;9180577;19;20483;-63
2023/03/22 00:43:21;;;;;;;7.60;4.88;;;11.10;80.30;;;;;;9180607;19;20014;-62
2023/03/22 00:46:30;;;;;;;12.90;5.78;;;11.00;80.30;;;;;;9180641;19;20021;-62
2023/03/22 00:49:36;;;;;;;15.90;5.85;;;11.10;80.30;;;;;;9180865;19;20022;-63
2023/03/22 00:52:42;;;;;;;12.35;5.88;;;11.00;80.30;;;;;;9175677;19;20014;-62
2023/03/22 00:55:46;;;;;;;11.65;5.18;;;11.00;80.30;;;;;;9173354;19;20043;-63
2023/03/22 00:58:52;;;;;;;9.77;5.18;;;11.00;80.30;;;;;;9180078;19;20714;-63
2023/03/22 01:01:58;;;;;;;15.07;5.75;;;11.00;80.30;;;;;;9177774;19;20025;-63
2023/03/22 01:05:06;;;;;;;12.40;6.07;;;10.90;80.30;;;;;;9177746;19;20341;-62
2023/03/22 01:08:11;;;;;;;10.80;5.10;;;10.90;80.30;;;;;;9177263;19;20022;-62
2023/03/22 01:11:18;;;;;;;10.25;4.97;;;10.90;80.40;;;;;;9178377;19;20010;-63
2023/03/22 01:14:23;;;;;;;10.10;4.60;;;10.90;80.40;;;;;;9179859;19;20014;-63
2023/03/22 01:17:30;;;;;;;11.95;4.90;;;10.80;80.30;;;;;;9177976;19;20030;-63
2023/03/22 01:20:35;;;;;;;10.73;4.35;;;10.80;80.40;;;;;;9179143;19;20371;-63
2023/03/22 01:23:41;;;;;;;12.73;4.40;;;10.80;80.40;;;;;;9177848;19;20021;-63
2023/03/22 01:26:46;;;;;;;12.13;4.28;;;10.80;80.40;;;;;;9177795;19;20017;-63
2023/03/22 01:29:52;;;;;;;7.57;3.67;;;10.80;80.50;;;;;;9177350;19;20038;-63
2023/03/22 01:32:57;;;;;;;11.60;3.78;;;10.80;80.50;;;;;;9174861;19;20011;-63
2023/03/22 01:36:09;;;;;;;6.45;3.72;;;10.80;80.50;;;;;;9177586;19;20013;-63
2023/03/22 01:39:13;;;;;;;11.93;4.32;;;10.80;81.20;;;;;;9179349;19;20342;-62
2023/03/22 01:42:22;;;;;;;7.13;3.58;;;10.80;80.60;;;;;;9176943;19;20010;-63
2023/03/22 01:45:39;;;;;;;11.75;4.25;;;10.80;80.60;;;;;;9179242;19;20368;-62
2023/03/22 01:48:47;;;;;;;8.85;4.70;;;10.80;80.60;;;;;;9177138;19;20018;-63
2023/03/22 01:51:56;;;;;;;13.43;4.78;;;10.80;80.60;;;;;;9174799;19;20018;-62
2023/03/22 01:55:28;;;;;;;12.80;4.63;;;10.80;80.60;;;;;;9172995;19;20022;-63
2023/03/22 01:58:44;;;;;;;13.32;4.40;;;10.80;80.60;;;;;;9178381;19;20040;-62
2023/03/22 02:01:53;;;;;;;11.02;4.82;;;10.80;80.50;;;;;;9176757;19;20018;-63
2023/03/22 02:05:00;;;;;;;9.45;4.10;;;10.80;80.60;;;;;;9171422;19;20050;-63
2023/03/22 02:08:07;;;;;;;11.07;4.53;;;10.80;80.60;;;;;;9174812;19;20790;-63
2023/03/22 02:11:34;;;;;;;9.77;4.40;;;10.80;80.60;;;;;;9174829;19;20014;-63
2023/03/22 02:15:02;;;;;;;10.50;5.25;;;10.80;80.60;;;;;;9176692;19;20357;-63
2023/03/22 02:18:46;;;;;;;13.75;4.82;;;10.80;80.70;;;;;;9175749;19;20051;-63
2023/03/22 02:22:26;;;;;;;13.95;5.35;;;10.80;80.70;;;;;;9175406;19;20021;-63
2023/03/22 02:26:06;;;;;;;16.90;5.75;;;10.80;80.70;;;;;;9177193;19;20471;-62
2023/03/22 02:29:35;;;;;;;12.02;5.18;;;10.80;80.70;;;;;;9177373;19;20415;-63
2023/03/22 02:33:01;;;;;;;9.90;4.97;;;10.80;80.70;;;;;;9174845;19;20357;-63
2023/03/22 02:36:33;;;;;;;13.90;5.63;;;10.80;80.70;;;;;;9175149;19;20007;-63
2023/03/22 02:39:46;;;;;;;16.08;5.75;;;10.80;80.70;;;;;;9176799;19;20047;-63
2023/03/22 02:43:02;;;;;;;8.43;4.97;;;10.80;80.70;;;;;;9176554;19;20026;-62
2023/03/22 02:46:10;;;;;;;10.73;4.85;;;10.80;80.70;;;;;;9174705;19;20025;-63
2023/03/22 02:49:22;;;;;;;15.68;4.80;;;10.80;80.60;;;;;;9176475;19;20014;-63
2023/03/22 02:52:33;;;;;;;14.27;5.78;;;10.80;80.70;;;;;;9174045;19;20010;-63
2023/03/22 02:55:47;;;;;;;12.73;5.50;;;10.80;80.60;;;;;;9170654;19;20364;-63
2023/03/22 02:58:53;;;;;;;14.18;5.93;;;10.80;80.70;;;;;;9174268;19;20036;-63
2023/03/22 03:02:04;;;;;;;11.02;5.18;;;10.80;80.70;;;;;;9175364;19;20025;-63
2023/03/22 03:05:11;;;;;;;10.13;5.00;;;10.80;80.60;;;;;;9175543;19;20014;-63
2023/03/22 03:08:20;;;;;;;17.70;6.47;;;10.80;80.70;;;;;;9172715;19;20010;-63
2023/03/22 03:11:27;;;;;;;10.68;5.35;;;10.80;80.70;;;;;;9173244;19;20400;-63
2023/03/22 03:14:33;;;;;;;16.05;5.78;;;10.80;80.70;;;;;;9173732;19;20368;-63
2023/03/22 03:17:49;;;;;;;10.00;5.22;;;10.80;80.70;;;;;;9180766;19;20018;-63
2023/03/22 03:21:03;;;;;;;26.67;5.40;;;10.80;80.70;;;;;;9183350;19;20033;-63
2023/03/22 03:24:19;;;;;;;12.63;5.60;;;10.80;80.70;;;;;;9183651;19;20022;-63
2023/03/22 03:27:33;;;;;;;11.25;5.28;;;10.70;80.70;;;;;;9183437;19;20007;-62
2023/03/22 03:30:42;;;;;;;16.00;5.75;;;10.70;80.70;;;;;;9182045;19;20010;-63
2023/03/22 03:33:58;;;;;;;9.82;5.88;;;10.70;80.70;;;;;;9180179;19;20357;-63
2023/03/22 03:37:07;;;;;;;12.70;6.20;;;10.70;80.70;;;;;;9183096;19;20062;-62
2023/03/22 03:40:16;;;;;;;13.32;5.97;;;10.80;80.80;;;;;;9184344;19;20019;-62
2023/03/22 03:43:24;;;;;;;12.30;5.70;;;10.70;80.70;;;;;;9183327;19;20006;-62
2023/03/22 03:46:31;;;;;;;14.60;6.63;;;10.70;80.80;;;;;;9183505;19;20021;-63
2023/03/22 03:49:36;;;;;;;11.90;6.78;;;10.70;80.80;;;;;;9182989;19;20023;-63
2023/03/22 03:52:44;;;;;;;13.65;7.25;;;10.70;80.80;;;;;;9178621;19;20003;-63
2023/03/22 03:55:47;;;;;;;14.77;6.70;;;10.70;80.80;;;;;;9175962;19;20015;-63
2023/03/22 03:58:57;;;;;;;16.30;8.05;;;10.70;80.90;;;;;;9180728;19;20014;-63
2023/03/22 04:02:01;;;;;;;21.17;8.65;;;10.70;80.90;;;;;;9180106;19;20498;-63
2023/03/22 04:05:10;;;;;;;18.30;8.52;;;10.70;81.00;;;;;;9180418;19;20010;-62
2023/03/22 04:08:15;;;;;;;13.02;7.47;;;10.70;81.00;;;;;;9180675;19;20019;-62
2023/03/22 04:11:21;;;;;;;20.90;8.40;;;10.70;81.00;;;;;;9179919;19;20487;-64
2023/03/22 04:14:31;;;;;;;18.00;8.70;;;10.70;81.10;;;;;;9179969;19;20471;-63
2023/03/22 04:17:45;;;;;;;17.73;9.18;;;10.80;81.20;;;;;;9179743;19;20013;-63
2023/03/22 04:20:52;;;;;;;17.05;8.65;;;10.80;81.20;;;;;;9179977;19;20477;-63
2023/03/22 04:24:00;;;;;;;19.38;8.88;;;10.80;81.30;;;;;;9180151;19;20017;-63
2023/03/22 04:27:07;;;;;;;16.38;9.23;;;10.80;81.20;;;;;;9178840;19;20014;-63
2023/03/22 04:30:23;;;;;;;18.15;9.05;;;10.80;81.30;;;;;;9179345;19;20011;-63
2023/03/22 04:33:45;;;;;;;16.13;8.77;;;10.80;81.30;;;;;;9177724;19;20023;-63
2023/03/22 04:37:01;;;;;;;;;;;10.90;81.40;;;;;;9180584;19;20018;-63
2023/03/22 04:40:15;;;;;;;25.10;9.45;;;10.90;81.40;;;;;;9179791;19;20687;-62
2023/03/22 04:43:38;;;;;;;19.42;8.68;;;10.90;81.20;;;;;;9179346;19;20022;-62
2023/03/22 04:46:47;;;;;;;16.48;9.48;;;10.90;81.30;;;;;;9179612;19;20019;-63
2023/03/22 04:49:54;;;;;;;15.63;7.70;;;10.90;81.40;;;;;;9179091;19;20019;-62
2023/03/22 04:52:59;;;;;;;20.40;9.10;;;10.90;81.40;;;;;;9176227;19;20023;-62
2023/03/22 04:56:06;;;;;;;21.45;9.45;;;11.00;81.50;;;;;;9172776;19;20030;-62
2023/03/22 04:59:11;;;;;;;26.33;9.15;;;11.00;81.60;;;;;;9178784;19;20018;-62
2023/03/22 05:02:19;;;;;;;20.52;8.55;;;11.00;81.60;;;;;;9180357;19;20018;-62
2023/03/22 05:05:25;;;;;;;20.45;8.80;;;11.00;81.60;;;;;;9178811;19;20082;-62
2023/03/22 05:08:32;;;;;;;18.88;8.25;;;11.00;81.60;;;;;;9177543;19;20475;-63
2023/03/22 05:11:37;;;;;;;21.10;9.30;;;11.00;81.60;;;;;;9178070;19;20011;-63
2023/03/22 05:14:56;;;;;;;15.70;8.05;;;11.10;81.70;;;;;;9178445;19;20015;-62
2023/03/22 05:18:07;;;;;;;15.90;8.20;;;11.10;81.70;;;;;;9178002;19;20018;-62
2023/03/22 05:21:20;;;;;;;15.45;8.13;;;11.10;81.60;;;;;;9177949;19;20019;-62
2023/03/22 05:24:30;;;;;;;15.63;7.63;;;11.10;81.60;;;;;;9177050;19;20014;-62
2023/03/22 05:27:37;;;;;;;20.67;7.32;;;11.10;81.60;;;;;;9178517;19;20352;-62
2023/03/22 05:30:54;;;;;;;15.75;6.93;;;11.10;81.60;;;;;;9177670;19;20014;-62
2023/03/22 05:34:12;;;;;;;19.95;7.50;;;11.10;81.60;;;;;;9173135;19;20491;-63
2023/03/22 05:37:20;;;;;;;21.77;7.65;;;11.10;81.60;;;;;;9177986;19;20093;-63
2023/03/22 05:40:31;;;;;;;12.95;6.95;;;11.10;81.60;;;;;;9175061;19;20802;-62
2023/03/22 05:43:35;;;;;;;19.02;6.53;;;11.10;81.60;;;;;;9177494;19;20046;-62
2023/03/22 05:46:41;;;;;;;18.90;7.65;;;11.10;81.60;;;;;;9177370;19;20085;-62
2023/03/22 05:50:04;;;;;;;14.57;6.50;;;11.10;81.60;;;;;;9173316;19;20345;-62
2023/03/22 05:53:12;;;;;;;12.82;6.35;;;11.10;81.60;;;;;;9174484;19;20010;-62
2023/03/22 05:56:25;;;;;;;17.02;6.75;;;11.10;81.60;;;;;;9173318;19;20011;-62
2023/03/22 05:59:39;;;;;;;16.15;5.70;;;11.10;81.60;;;;;;9177288;19;20025;-62
2023/03/22 06:02:51;;;;;;;15.40;6.60;;;11.10;81.60;;;;;;9176272;19;20011;-62
2023/03/22 06:05:59;;;;;;;16.10;6.13;;;11.10;81.70;;;;;;9177728;19;20014;-63
2023/03/22 06:09:15;;;;;;;16.20;6.03;;;11.10;81.70;;;;;;9175492;19;20078;-62
2023/03/22 06:12:28;;;;;;;17.08;6.32;;;11.10;81.70;;;;;;9174791;19;20017;-62
2023/03/22 06:15:43;;;;;;;12.18;5.13;;;11.10;81.70;;;;;;9175867;19;20023;-62
2023/03/22 06:18:56;;;;;;;11.95;5.18;;;11.10;81.70;;;;;;9176513;19;20463;-62
2023/03/22 06:22:01;;;;;;;;;;;11.10;81.80;;;;;;9177038;19;20431;-63
2023/03/22 06:25:09;;;;;;;11.82;4.40;;;11.10;81.70;;;;;;9175683;19;19922;-62
2023/03/22 06:28:18;;;;;;;18.90;5.13;;;11.10;81.60;;;;;;9175737;19;20033;-62
2023/03/22 06:31:29;;;;;;;18.30;4.78;;;11.10;81.60;;;;;;9175011;19;20555;-62
2023/03/22 06:34:39;;;;;;;13.90;4.15;;;11.10;82.20;;;;;;9175152;19;20014;-62
2023/03/22 06:37:49;;;;;;;10.50;4.25;;;11.10;81.60;;;;;;9175412;19;20018;-62
2023/03/22 06:40:52;;;;;;;12.40;4.35;;;11.10;81.70;;;;;;9175041;19;20051;-63
2023/03/22 06:43:59;;;;;;;8.38;4.22;;;11.10;81.70;;;;;;9176370;19;20011;-63
2023/03/22 06:47:35;;;;;;;14.27;4.00;;;11.10;81.70;;;;;;9174106;19;20010;-63
2023/03/22 06:51:10;;;;;;;10.20;3.70;;;11.10;81.60;;;;;;9175613;19;20017;-62
2023/03/22 06:54:16;;;;;;;12.88;4.90;;;11.10;81.60;;;;;;9180584;19;20124;-62
2023/03/22 06:57:22;;;;;;;12.40;3.88;;;11.10;81.60;;;;;;9177247;19;20015;-62
2023/03/22 07:00:26;;;;;;;;;;;11.10;81.60;;;;;;9184100;19;20023;-62
2023/03/22 07:03:32;;;;;;;9.73;3.63;;;11.10;81.60;;;;;;9182459;19;19919;-62
2023/03/22 07:06:41;;;;;;;8.68;3.97;;;11.10;81.60;;;;;;9182782;19;20506;-62
2023/03/22 07:09:52;;;;;;;11.55;3.72;;;11.10;81.70;;;;;;9180331;19;20015;-62
2023/03/22 07:12:56;;;;;;;9.05;3.80;;;11.10;81.80;;;;;;9181222;19;20492;-62
2023/03/22 07:16:03;;;;;;;11.52;3.53;;;11.10;81.80;;;;;;9182292;19;20014;-64
2023/03/22 07:19:17;;;;;;;6.20;3.03;;;11.20;82.00;;;;;;9182765;19;20353;-62
2023/03/22 07:22:23;;;;;;;7.32;3.28;;;11.30;82.10;;;;;;9181658;19;20014;-62
2023/03/22 07:25:31;;;;;;;10.15;3.33;;;11.40;82.10;;;;;;9174746;19;20026;-66
2023/03/22 07:28:52;;;;;;;13.20;3.30;;;11.50;82.10;;;;;;9171814;19;20597;-67
2023/03/22 07:32:01;;;;;;;10.38;3.08;;;11.50;82.00;;;;;;9173159;19;20019;-67
2023/03/22 07:35:20;;;;;;;9.95;2.90;;;11.60;82.00;;;;;;9179760;19;20014;-66
2023/03/22 07:38:25;;;;;;;9.60;2.67;;;11.70;82.00;;;;;;9173573;19;20690;-67
2023/03/22 07:41:37;;;;;;;13.85;3.33;;;11.90;81.90;;;;;;9173394;19;20014;-66
2023/03/22 07:45:02;;;;;;;9.85;2.63;;;11.90;81.80;;;;;;9179752;19;20017;-67
2023/03/22 07:48:22;;;;;;;14.85;3.30;;;12.00;81.60;;;;;;9173970;19;20015;-67
2023/03/22 07:51:47;;;;;;;10.27;3.25;;;12.00;81.50;;;;;;9169377;19;20709;-68
2023/03/22 07:54:53;;;;;;;10.38;2.70;;;12.10;81.50;;;;;;9171795;19;20026;-68
2023/03/22 07:57:59;;;;;;;12.07;2.78;;;12.10;81.40;;;;;;9168511;19;20018;-68
2023/03/22 08:01:07;;;;;;;10.40;2.70;;;12.20;81.40;;;;;;9174988;19;20015;-68
2023/03/22 08:04:41;;;;;;;5.85;2.97;;;12.20;81.30;;;;;;9179801;19;20022;-68
2023/03/22 08:07:53;;;;;;;14.27;3.35;;;12.30;81.20;;;;;;9172177;19;20014;-68
2023/03/22 08:10:57;;;;;;;13.07;2.88;;;12.40;81.20;;;;;;9174524;19;20018;-68
2023/03/22 08:14:05;;;;;;;11.32;2.90;;;12.40;81.10;;;;;;9174350;19;20029;-68
2023/03/22 08:17:11;;;;;;;11.02;2.25;;;12.50;81.10;;;;;;9175030;19;20025;-68
2023/03/22 08:20:18;;;;;;;12.38;2.60;;;12.50;81.00;;;;;;9181306;19;20384;-68
2023/03/22 08:23:29;;;;;;;8.02;2.83;;;12.50;80.90;;;;;;9177861;19;20114;-68
2023/03/22 08:27:06;;;;;;;12.55;2.78;;;12.50;80.80;;;;;;9180363;19;20015;-69
2023/03/22 08:30:23;;;;;;;11.55;3.05;;;12.60;80.70;;;;;;9179657;19;20018;-67
2023/03/22 08:33:29;;;;;;;7.70;2.60;;;12.60;80.60;;;;;;9177342;19;20475;-68
2023/03/22 08:36:33;;;;;;;8.18;2.70;;;12.60;80.60;;;;;;9173268;19;20019;-68
2023/03/22 08:39:44;;;;;;;8.32;2.97;;;12.70;80.60;;;;;;9176227;19;20146;-68
2023/03/22 08:43:01;;;;;;;9.80;3.20;;;12.70;80.60;;;;;;9175768;19;20025;-68
2023/03/22 08:46:10;;;;;;;10.25;2.85;;;12.70;80.50;;;;;;9175662;19;20018;-68
2023/03/22 08:49:15;;;;;;;14.35;3.28;;;12.70;80.40;;;;;;9175392;19;20014;-68
2023/03/22 08:52:28;;;;;;;5.28;2.63;;;12.70;80.40;;;;;;9172181;19;20014;-68
2023/03/22 08:55:43;;;;;;;;;;;12.70;80.40;;;;;;9166797;19;20467;-68
2023/03/22 08:58:49;;;;;;;4.80;2.20;;;12.70;80.30;;;;;;9169546;19;19922;-68
2023/03/22 09:01:55;;;;;;;6.13;2.63;;;12.70;80.30;;;;;;9167948;19;20401;-68
2023/03/22 09:05:01;;;;;;;15.75;3.60;;;12.70;80.30;;;;;;9175651;19;20598;-69
2023/03/22 09:08:06;;;;;;;8.65;2.97;;;12.70;80.30;;;;;;9170568;19;20018;-69
2023/03/22 09:11:19;;;;;;;9.52;2.85;;;12.70;80.20;;;;;;9170912;19;20371;-67
2023/03/22 09:14:24;;;;;;;9.10;3.00;;;12.70;80.20;;;;;;9156615;19;20011;-67
2023/03/22 09:17:33;;;;;;;13.63;4.25;;;12.70;80.20;;;;;;9162616;19;20015;-67
2023/03/22 09:20:59;;;;;;;10.63;3.25;;;12.70;80.30;;;;;;9164472;19;20018;-67
2023/03/22 09:24:14;;;;;;;9.43;2.88;;;12.70;80.20;;;;;;9167356;19;20017;-66
2023/03/22 09:27:26;;;;;;;15.27;3.13;;;12.70;80.20;;;;;;9163985;19;20404;-68
2023/03/22 09:30:35;;;;;;;5.72;3.08;;;12.70;80.20;;;;;;9160913;19;20018;-68
2023/03/22 09:33:42;;;;;;;12.85;3.58;;;12.80;80.20;;;;;;9157885;19;20014;-67
2023/03/22 09:36:51;;;;;;;11.85;3.00;;;12.80;80.10;;;;;;9164010;19;20388;-68
2023/03/22 09:39:58;;;;;;;7.45;2.83;;;12.90;80.10;;;;;;9160729;19;20379;-67
2023/03/22 09:43:09;;;;;;;7.25;2.60;;;12.90;80.00;;;;;;9161884;19;20014;-67
2023/03/22 09:46:17;;;;;;;10.88;3.58;;;13.00;80.00;;;;;;9163526;19;20026;-67
2023/03/22 09:49:29;;;;;;;16.08;3.83;;;13.00;80.00;;;;;;9161505;19;20372;-67
2023/03/22 09:52:33;;;;;;;16.70;3.22;;;13.10;80.00;;;;;;9163157;19;20384;-68
2023/03/22 09:55:45;;;;;;;13.68;3.70;;;13.10;79.90;;;;;;9157472;19;20413;-68
2023/03/22 09:58:54;;;;;;;13.98;3.28;;;13.20;79.90;;;;;;9162789;19;20010;-68
2023/03/22 10:02:01;;;;;;;7.88;2.70;;;13.30;79.80;;;;;;9171853;19;20014;-68
2023/03/22 10:05:16;;;;;;;9.25;2.45;;;13.30;79.80;;;;;;9170952;19;20022;-68
2023/03/22 10:08:33;;;;;;;11.93;3.20;;;13.40;79.60;;;;;;9172769;19;20019;-67
2023/03/22 10:11:44;;;;;;;9.82;3.03;;;13.40;79.50;;;;;;9174259;19;20019;-67
2023/03/22 10:14:58;;;;;;;9.05;2.30;;;13.50;79.50;;;;;;9169557;19;20017;-67
2023/03/22 10:18:06;;;;;;;11.35;2.90;;;13.50;79.40;;;;;;9170372;19;20138;-67
2023/03/22 10:21:19;;;;;;;10.73;2.17;;;13.50;79.30;;;;;;9172472;19;20486;-67
2023/03/22 10:24:27;;;;;;;12.07;2.95;;;13.50;79.20;;;;;;9177454;19;20014;-67
2023/03/22 10:27:35;;;;;;;9.82;2.10;;;13.60;79.20;;;;;;9168338;19;20356;-67
2023/03/22 10:30:41;;;;;;;14.40;2.97;;;13.60;79.10;;;;;;9165486;19;20025;-67
2023/03/22 10:33:56;;;;;;;12.10;2.40;;;13.60;79.00;;;;;;9166185;19;20026;-67
2023/03/22 10:37:06;;;;;;;14.77;2.35;;;13.60;78.90;;;;;;9170625;19;20014;-67
2023/03/22 10:40:19;;;;;;;10.40;2.75;;;13.60;78.80;;;;;;9166903;19;20356;-66
2023/03/22 10:43:29;;;;;;;11.68;3.13;;;13.60;78.80;;;;;;9173786;19;20472;-67
2023/03/22 10:46:39;;;;;;;9.15;2.45;;;13.60;78.80;;;;;;9176720;19;20098;-67
2023/03/22 10:49:47;;;;;;;11.52;2.33;;;13.60;78.60;;;;;;9173472;19;20531;-67
2023/03/22 10:53:03;;;;;;;10.10;2.63;;;13.60;78.60;;;;;;9167913;19;20010;-69
2023/03/22 10:56:14;;;;;;;8.85;2.22;;;13.60;78.50;;;;;;9163611;19;20042;-67
2023/03/22 10:59:49;;;;;;;10.88;3.08;;;13.50;78.50;;;;;;9171849;19;20011;-67
2023/03/22 11:02:59;;;;;;;9.32;2.22;;;13.50;78.50;;;;;;9173738;19;20027;-67
2023/03/22 11:06:09;;;;;;;13.98;2.28;;;13.50;78.60;;;;;;9174601;19;20021;-67
2023/03/22 11:09:18;;;;;;;13.45;2.88;;;13.40;78.50;;;;;;9171410;19;20027;-67
2023/03/22 11:12:24;;;;;;;12.18;2.33;;;13.40;78.60;;;;;;9167459;19;20483;-67
2023/03/22 11:15:31;;;;;;;8.63;2.47;;;13.40;78.70;;;;;;9169589;19;20010;-67
2023/03/22 11:18:37;;;;;;;14.50;2.22;;;13.30;78.70;;;;;;9168009;19;20022;-67
2023/03/22 11:21:42;;;;;;;;;;;13.30;78.70;;;;;;9174788;19;20486;-67
2023/03/22 11:24:52;;;;;;;12.00;2.28;;;13.30;78.80;;;;;;9174075;19;19923;-67
2023/03/22 11:27:58;;;;;;;7.85;2.33;;;13.30;79.40;;;;;;9171855;19;20018;-67
2023/03/22 11:31:08;;;;;;;11.07;2.30;;;13.20;78.80;;;;;;9173814;19;20006;-66
2023/03/22 11:34:18;;;;;;;11.02;2.30;;;13.20;78.90;;;;;;9170411;19;20522;-67
2023/03/22 11:37:24;;;;;;;7.30;2.33;;;13.20;78.90;;;;;;9168688;19;20014;-67
2023/03/22 11:40:30;;;;;;;;;;;13.20;79.00;;;;;;9177146;19;20010;-67
2023/03/22 11:43:38;;;;;;;7.18;1.88;;;13.20;79.00;;;;;;9170718;19;19930;-67
2023/03/22 11:46:51;;;;;;;5.93;2.05;;;13.10;79.00;;;;;;9174424;19;20042;-67
2023/03/22 11:49:57;;;;;;;8.20;2.22;;;13.10;79.10;;;;;;9174866;19;20530;-67
2023/03/22 11:53:02;;;;;;;;;;;13.10;79.20;;;;;;9175933;19;20026;-67
2023/03/22 11:56:13;;;;;;;11.07;2.85;;;13.10;79.20;;;;;;9168161;19;20276;-67
2023/03/22 11:59:24;;;;;;;7.15;2.13;;;13.10;79.20;;;;;;9175689;19;20018;-67
2023/03/22 12:02:34;;;;;;;12.25;2.72;;;13.10;79.20;;;;;;9180668;19;20012;-67
2023/03/22 12:05:41;;;;;;;9.50;2.45;;;13.10;79.20;;;;;;9177953;19;20018;-67
2023/03/22 12:08:52;;;;;;;13.02;2.60;;;13.10;79.20;;;;;;9178053;19;20037;-67
2023/03/22 12:12:00;;;;;;;13.82;2.58;;;13.10;79.20;;;;;;9181299;19;20017;-67
2023/03/22 12:15:09;;;;;;;6.70;2.20;;;13.10;79.30;;;;;;9178432;19;20021;-67
2023/03/22 12:18:18;;;;;;;9.57;2.33;;;13.10;79.20;;;;;;9179592;19;20027;-67
2023/03/22 12:21:24;;;;;;;8.10;2.50;;;13.10;79.20;;;;;;9180994;19;20014;-67
2023/03/22 12:24:30;;;;;;;11.50;2.35;;;13.10;79.20;;;;;;9181347;19;20013;-67
2023/03/22 12:27:42;;;;;;;11.38;2.00;;;13.10;79.20;;;;;;9179445;19;20019;-67
2023/03/22 12:30:49;;;;;;;11.07;2.30;;;13.10;79.20;;;;;;9179556;19;20021;-67
2023/03/22 12:33:57;;;;;;;9.75;2.00;;;13.10;79.20;;;;;;9178933;19;20017;-67
2023/03/22 12:37:06;;;;;;;13.57;2.00;;;13.00;79.20;;;;;;9181137;19;20021;-67
2023/03/22 12:40:24;;;;;;;8.98;2.05;;;13.00;79.20;;;;;;9180630;19;20484;-68
2023/03/22 12:43:43;;;;;;;6.57;2.10;;;13.00;79.20;;;;;;9180961;19;20118;-68
2023/03/22 12:46:51;;;;;;;7.72;1.58;;;13.00;79.10;;;;;;9180542;19;20026;-67
2023/03/22 12:50:01;;;;;;;10.15;2.10;;;13.00;79.70;;;;;;9179473;19;20015;-67
2023/03/22 12:53:11;;;;;;;9.40;3.30;;;13.00;79.10;;;;;;9179127;19;20348;-67
2023/03/22 12:56:18;;;;;;;10.02;2.13;;;13.00;79.20;;;;;;9174682;19;20014;-66
2023/03/22 12:59:30;;;;;;;12.95;2.00;;;13.00;79.10;;;;;;9179818;19;20042;-67
2023/03/22 13:02:36;;;;;;;11.63;1.83;;;13.00;79.10;;;;;;9179996;19;20037;-67
2023/03/22 13:05:42;;;;;;;8.80;2.08;;;12.90;79.10;;;;;;9179308;19;20010;-67
2023/03/22 13:09:15;;;;;;;5.47;2.08;;;12.90;79.10;;;;;;9177855;19;20523;-67
2023/03/22 13:12:35;;;;;;;5.95;1.85;;;12.90;79.10;;;;;;9179177;19;20015;-67
2023/03/22 13:15:56;;;;;;;9.45;1.98;;;12.80;79.10;;;;;;9178961;19;20353;-67
2023/03/22 13:19:06;;;;;;;14.43;2.85;;;12.80;79.10;;;;;;9176781;19;20451;-67
2023/03/22 13:22:26;;;;;;;10.82;1.80;;;12.80;79.10;;;;;;9179135;19;20015;-67
2023/03/22 13:25:37;;;;;;;6.63;1.90;;;12.80;79.10;;;;;;9177511;19;20014;-67
2023/03/22 13:28:42;;;;;;;7.47;2.13;;;12.80;79.10;;;;;;9175417;19;20494;-67
2023/03/22 13:31:57;;;;;;;14.00;2.08;;;12.80;79.20;;;;;;9175557;19;20022;-67
2023/03/22 13:35:02;;;;;;;6.90;1.88;;;12.80;79.10;;;;;;9175492;19;20006;-67
2023/03/22 13:38:11;;;;;;;7.75;1.77;;;12.80;79.10;;;;;;9178435;19;20022;-67
2023/03/22 13:41:22;;;;;;;5.70;1.70;;;12.80;79.10;;;;;;9178687;19;20094;-67
2023/03/22 13:44:31;;;;;;;8.33;1.87;;;12.70;79.10;;;;;;9178684;19;20022;-67
2023/03/22 13:47:45;;;;;;;9.68;3.22;;;12.70;79.10;;;;;;9178606;19;20015;-67
2023/03/22 13:50:53;;;;;;;13.23;2.03;;;12.70;79.20;;;;;;9178151;19;20479;-67
2023/03/22 13:54:01;;;;;;;10.85;2.05;;;12.70;79.20;;;;;;9176629;19;20025;-67
2023/03/22 13:57:17;;;;;;;10.73;2.08;;;12.70;79.20;;;;;;9172841;19;20050;-67
2023/03/22 14:00:49;;;;;;;5.80;1.88;;;12.80;79.30;;;;;;9175604;19;20041;-67
2023/03/22 14:04:00;;;;;;;7.10;1.73;;;12.80;79.30;;;;;;9176879;19;20480;-67
2023/03/22 14:07:09;;;;;;;9.93;2.65;;;12.70;79.30;;;;;;9177763;19;20027;-67
2023/03/22 14:10:20;;;;;;;9.88;2.75;;;12.70;79.30;;;;;;9178763;19;20033;-67
2023/03/22 14:13:32;;;;;;;9.90;2.00;;;12.70;79.40;;;;;;9177712;19;20357;-66
2023/03/22 14:16:43;;;;;;;6.88;2.63;;;12.70;79.50;;;;;;9174490;19;20831;-67
2023/03/22 14:19:50;;;;;;;9.63;1.98;;;12.70;79.50;;;;;;9174492;19;20041;-67
2023/03/22 14:23:03;;;;;;;9.63;1.80;;;12.70;79.50;;;;;;9166270;19;20043;-67
2023/03/22 14:26:09;;;;;;;13.63;2.38;;;12.60;79.50;;;;;;9167765;19;20010;-66
2023/03/22 14:29:17;;;;;;;4.00;1.80;;;12.60;79.60;;;;;;9170181;19;20399;-67
2023/03/22 14:32:28;;;;;;;10.30;2.40;;;12.60;79.70;;;;;;9169647;19;20497;-67
2023/03/22 14:35:37;;;;;;;10.95;1.83;;;12.60;79.80;;;;;;9166266;19;20014;-67
2023/03/22 14:38:43;;;;;;;6.60;2.03;;;12.50;79.80;;;;;;9168543;19;20025;-67
2023/03/22 14:42:00;;;;;;;5.97;1.75;;;12.50;79.90;;;;;;9167779;19;20018;-67
2023/03/22 14:45:07;;;;;;;14.27;2.58;;;12.50;80.10;;;;;;9169097;19;20013;-67
2023/03/22 14:48:20;;;;;;;14.20;2.60;;;12.50;80.10;;;;;;9169721;19;20264;-67
2023/03/22 14:51:31;;;;;;;6.28;1.85;;;12.50;80.10;;;;;;9169026;19;20037;-66
2023/03/22 14:54:38;;;;;;;6.90;2.57;;;12.50;80.20;;;;;;9166975;19;20010;-66
2023/03/22 14:57:50;;;;;;;8.63;2.15;;;12.50;80.80;;;;;;9162210;19;20460;-66
2023/03/22 15:01:00;;;;;;;6.50;2.22;;;12.50;80.40;;;;;;9167448;19;20021;-66
2023/03/22 15:04:09;;;;;;;8.45;2.47;;;12.50;80.40;;;;;;9168281;19;20021;-66
2023/03/22 15:07:19;;;;;;;7.80;2.42;;;12.50;80.40;;;;;;9173361;19;20011;-67
2023/03/22 15:10:25;;;;;;;4.38;2.70;;;12.50;80.50;;;;;;9172500;19;20023;-67
2023/03/22 15:13:33;;;;;;;6.20;2.53;;;12.40;80.50;;;;;;9178088;19;20376;-67
2023/03/22 15:16:40;;;;;;;6.43;2.60;;;12.40;80.60;;;;;;9176706;19;20104;-68
2023/03/22 15:19:51;;;;;;;9.48;2.45;;;12.40;80.70;;;;;;9177662;19;20089;-67
2023/03/22 15:22:59;;;;;;;7.38;2.83;;;12.50;80.90;;;;;;9178747;19;20110;-66
2023/03/22 15:26:16;;;;;;;9.63;3.40;;;12.50;80.90;;;;;;9178976;19;20014;-66
2023/03/22 15:29:22;;;;;;;;;;;12.50;80.90;;;;;;9181579;19;20110;-66
2023/03/22 15:32:29;;;;;;;7.75;2.45;;;12.50;80.90;;;;;;9180124;19;19915;-66
2023/03/22 15:35:33;;;;;;;6.90;2.10;;;12.50;80.80;;;;;;9177304;19;20359;-66
2023/03/22 15:38:43;;;;;;;11.10;2.42;;;12.60;80.90;;;;;;9179313;19;20014;-66
2023/03/22 15:41:57;;;;;;;9.77;2.22;;;12.50;80.90;;;;;;9179892;19;20112;-66
2023/03/22 15:45:12;;;;;;;9.35;2.53;;;12.50;80.90;;;;;;9181835;19;20344;-66
2023/03/22 15:48:24;;;;;;;3.70;1.52;;;12.60;80.90;;;;;;9180658;19;20033;-66
2023/03/22 15:51:31;;;;;;;;;;;12.60;81.00;;;;;;9180883;19;20697;-67
2023/03/22 15:54:44;;;;;;;11.02;1.88;;;12.60;80.90;;;;;;9179046;19;19915;-68
2023/03/22 15:57:53;;;;;;;8.90;2.05;;;12.60;80.80;;;;;;9171162;19;20022;-66
2023/03/22 16:01:09;;;;;;;6.60;2.13;;;12.60;80.80;;;;;;9177795;19;20372;-68
2023/03/22 16:04:20;;;;;;;8.43;2.15;;;12.60;80.90;;;;;;9178327;19;20401;-69
2023/03/22 16:07:25;;;;;;;11.73;2.63;;;12.60;80.90;;;;;;9175648;19;20479;-67
2023/03/22 16:10:36;;;;;;;8.52;2.25;;;12.60;80.90;;;;;;9175784;19;20986;-68
2023/03/22 16:13:41;;;;;;;4.75;2.65;;;12.70;80.90;;;;;;9171508;19;20015;-67
2023/03/22 16:16:49;;;;;;;7.25;2.25;;;12.70;80.90;;;;;;9180710;19;20011;-66
2023/03/22 16:19:55;;;;;;;8.20;2.78;;;12.70;80.90;;;;;;9176202;19;20030;-66
2023/03/22 16:23:03;;;;;;;13.68;2.88;;;12.70;80.90;;;;;;9169159;19;20025;-67
2023/03/22 16:26:21;;;;;;;6.55;2.30;;;12.70;80.90;;;;;;9176652;19;20018;-67
2023/03/22 16:29:27;;;;;;;11.07;3.60;;;12.70;80.90;;;;;;9170616;19;20357;-67